createdAt,value
2022-08-18T00:01:26.588Z,77.40
2022-08-18T00:03:59.328Z,77.30
2022-08-18T00:06:30.498Z,77.10
2022-08-18T00:08:59.014Z,77.30
2022-08-18T00:11:41.335Z,77.30
2022-08-18T00:14:11.737Z,77.40
2022-08-18T00:16:50.117Z,77.40
2022-08-18T00:19:17.516Z,77.70
2022-08-18T00:21:47.070Z,77.60
2022-08-18T00:24:14.124Z,77.70
2022-08-18T00:26:41.483Z,77.50
2022-08-18T00:29:14.018Z,77.30
2022-08-18T00:31:41.143Z,77.20
2022-08-18T00:34:08.642Z,77.20
2022-08-18T00:36:35.706Z,77.30
2022-08-18T00:39:03.488Z,77.10
2022-08-18T00:41:31.427Z,77.10
2022-08-18T00:43:58.705Z,77.10
2022-08-18T00:46:30.282Z,77.10
2022-08-18T00:48:59.997Z,77.10
2022-08-18T00:51:28.573Z,77.00
2022-08-18T00:54:09.255Z,77.00
2022-08-18T00:56:38.811Z,76.80
2022-08-18T00:59:09.632Z,76.60
2022-08-18T01:01:36.967Z,76.90
2022-08-18T01:04:17.204Z,76.70
2022-08-18T01:06:59.202Z,76.70
2022-08-18T01:09:32.695Z,76.60
2022-08-18T01:11:59.939Z,76.40
2022-08-18T01:14:27.379Z,76.60
2022-08-18T01:17:13.388Z,76.50
2022-08-18T01:19:58.993Z,76.30
2022-08-18T01:22:36.265Z,76.40
2022-08-18T01:25:22.229Z,76.70
2022-08-18T01:28:00.748Z,76.60
2022-08-18T01:30:28.253Z,76.80
2022-08-18T01:32:56.012Z,77.10
2022-08-18T01:35:26.024Z,77.50
2022-08-18T01:37:54.047Z,77.90
2022-08-18T01:41:23.170Z,77.70
2022-08-18T01:43:10.595Z,77.60
2022-08-18T01:45:37.795Z,77.50
2022-08-18T01:48:05.414Z,77.30
2022-08-18T01:50:34.919Z,77.30
2022-08-18T01:53:04.549Z,77.00
2022-08-18T01:55:33.971Z,77.30
2022-08-18T01:58:01.989Z,77.30
2022-08-18T02:00:29.273Z,77.70
2022-08-18T02:02:58.234Z,77.70
2022-08-18T02:05:35.653Z,77.70
2022-08-18T02:08:03.390Z,77.40
2022-08-18T02:10:30.793Z,77.40
2022-08-18T02:12:57.921Z,77.20
2022-08-18T02:15:24.941Z,77.00
2022-08-18T02:17:52.555Z,77.50
2022-08-18T02:20:20.060Z,77.60
2022-08-18T02:22:47.538Z,77.90
2022-08-18T02:25:15.642Z,77.60
2022-08-18T02:27:43.293Z,77.70
2022-08-18T02:30:12.424Z,77.40
2022-08-18T02:32:39.562Z,77.40
2022-08-18T02:35:10.293Z,77.40
2022-08-18T02:37:54.385Z,77.10
2022-08-18T02:40:23.601Z,77.00
2022-08-18T02:42:52.919Z,76.60
2022-08-18T02:45:20.120Z,76.50
2022-08-18T02:47:53.112Z,76.60
2022-08-18T02:50:20.314Z,76.40
2022-08-18T02:52:47.491Z,76.60
2022-08-18T02:55:14.854Z,76.40
2022-08-18T02:57:51.117Z,76.10
2022-08-18T03:00:19.264Z,76.20
2022-08-18T03:02:47.867Z,76.10
2022-08-18T03:05:17.294Z,75.90
2022-08-18T03:07:44.909Z,75.80
2022-08-18T03:10:32.938Z,75.70
2022-08-18T03:13:01.560Z,75.90
2022-08-18T03:15:28.789Z,76.10
2022-08-18T03:17:58.931Z,76.10
2022-08-18T03:20:30.759Z,75.80
2022-08-18T03:22:58.837Z,76.10
2022-08-18T03:25:29.095Z,75.90
2022-08-18T03:27:57.166Z,76.00
2022-08-18T03:30:24.714Z,75.90
2022-08-18T03:32:52.391Z,76.10
2022-08-18T03:35:19.470Z,76.10
2022-08-18T03:37:46.677Z,76.00
2022-08-18T03:40:14.277Z,76.00
2022-08-18T03:42:41.786Z,76.30
2022-08-18T03:45:13.393Z,75.90
2022-08-18T03:47:46.212Z,75.90
2022-08-18T03:50:14.257Z,76.20
2022-08-18T03:52:41.764Z,76.80
2022-08-18T03:55:09.634Z,77.20
2022-08-18T03:57:38.979Z,77.10
2022-08-18T04:00:06.883Z,77.40
2022-08-18T04:02:34.313Z,77.60
2022-08-18T04:05:01.503Z,77.30
2022-08-18T04:07:32.442Z,77.30
2022-08-18T04:09:59.785Z,77.90
2022-08-18T04:12:26.859Z,77.80
2022-08-18T04:14:54.043Z,77.90
2022-08-18T04:17:25.794Z,77.60
2022-08-18T04:19:55.949Z,77.60
2022-08-18T04:22:23.165Z,77.50
2022-08-18T04:24:50.801Z,77.80
2022-08-18T04:27:18.867Z,77.50
2022-08-18T04:29:46.199Z,77.40
2022-08-18T04:32:13.471Z,77.50
2022-08-18T04:34:40.559Z,77.60
2022-08-18T04:37:09.729Z,77.40
2022-08-18T04:39:37.663Z,77.30
2022-08-18T04:42:06.139Z,77.20
2022-08-18T04:44:34.327Z,77.50
2022-08-18T04:47:01.506Z,78.10
2022-08-18T04:49:28.659Z,78.60
2022-08-18T04:52:36.520Z,78.60
2022-08-18T04:55:03.795Z,79.10
2022-08-18T04:57:34.959Z,80.00
2022-08-18T05:00:03.007Z,80.20
2022-08-18T05:02:31.659Z,81.20
2022-08-18T05:04:58.905Z,81.70
2022-08-18T05:07:29.125Z,81.90
2022-08-18T05:09:56.691Z,82.00
2022-08-18T05:12:27.126Z,82.20
2022-08-18T05:14:57.530Z,81.70
2022-08-18T05:17:30.188Z,81.60
2022-08-18T05:20:01.592Z,82.10
2022-08-18T05:22:31.169Z,82.00
2022-08-18T05:25:00.152Z,82.10
2022-08-18T05:27:33.139Z,81.90
2022-08-18T05:30:00.295Z,82.00
2022-08-18T05:32:48.125Z,82.40
2022-08-18T05:35:31.458Z,82.50
2022-08-18T05:38:12.174Z,82.30
2022-08-18T05:40:39.570Z,81.80
2022-08-18T05:43:06.619Z,81.70
2022-08-18T05:45:34.862Z,81.20
2022-08-18T05:48:02.144Z,80.50
2022-08-18T05:50:29.788Z,80.10
2022-08-18T05:52:57.800Z,80.30
2022-08-18T05:56:19.861Z,80.40
2022-08-18T05:58:50.172Z,80.40
2022-08-18T06:01:29.058Z,79.60
2022-08-18T06:04:08.653Z,79.40
2022-08-18T06:06:36.869Z,79.80
2022-08-18T06:09:33.450Z,79.10
2022-08-18T06:12:13.565Z,77.90
2022-08-18T06:14:41.437Z,77.70
2022-08-18T06:17:41.618Z,78.00
2022-08-18T06:20:24.886Z,77.50
2022-08-18T06:23:10.790Z,77.00
2022-08-18T06:26:01.739Z,77.70
2022-08-18T06:28:58.037Z,76.90
2022-08-18T06:31:49.731Z,76.60
2022-08-18T06:34:46.635Z,76.50
2022-08-18T06:37:26.638Z,75.50
2022-08-18T06:39:54.058Z,74.60
2022-08-18T06:42:26.469Z,74.90
2022-08-18T06:45:08.318Z,74.60
2022-08-18T06:47:45.265Z,74.20
2022-08-18T06:50:21.043Z,74.10
2022-08-18T06:52:58.024Z,73.90
2022-08-18T06:55:39.868Z,74.20
2022-08-18T06:58:30.804Z,73.90
2022-08-18T07:01:03.235Z,73.20
2022-08-18T07:03:39.617Z,73.40
2022-08-18T07:06:28.984Z,73.50
2022-08-18T07:09:17.169Z,73.30
2022-08-18T07:12:08.493Z,73.30
2022-08-18T07:14:50.883Z,73.30
2022-08-18T07:17:52.815Z,73.20
2022-08-18T07:20:26.930Z,72.90
2022-08-18T07:22:55.615Z,73.20
2022-08-18T07:25:28.643Z,72.20
2022-08-18T07:28:01.981Z,72.10
2022-08-18T07:30:32.631Z,71.50
2022-08-18T07:33:14.151Z,70.90
2022-08-18T07:35:51.639Z,69.50
2022-08-18T07:38:44.563Z,68.90
2022-08-18T07:41:16.038Z,68.00
2022-08-18T07:43:46.436Z,68.00
2022-08-18T07:46:45.619Z,67.80
2022-08-18T07:49:22.016Z,66.50
2022-08-18T07:52:00.985Z,66.70
2022-08-18T07:54:49.906Z,67.10
2022-08-18T07:57:42.641Z,66.00
2022-08-18T08:03:37.733Z,66.50
2022-08-18T08:06:31.232Z,65.70
2022-08-18T08:09:20.344Z,64.10
2022-08-18T08:11:57.361Z,64.40
2022-08-18T08:14:42.664Z,65.00
2022-08-18T08:17:26.313Z,64.60
2022-08-18T08:20:14.789Z,64.90
2022-08-18T08:23:02.623Z,64.10
2022-08-18T08:25:46.426Z,62.80
2022-08-18T08:28:26.697Z,63.30
2022-08-18T08:31:33.140Z,63.10
2022-08-18T08:34:13.087Z,61.70
2022-08-18T08:36:41.821Z,61.30
2022-08-18T08:39:18.856Z,62.80
2022-08-18T08:41:51.246Z,62.40
2022-08-18T08:44:33.625Z,63.00
2022-08-18T08:47:29.960Z,62.00
2022-08-18T08:50:00.320Z,60.30
2022-08-18T08:52:51.403Z,60.40
2022-08-18T08:55:29.835Z,59.70
2022-08-18T08:58:09.103Z,59.80
2022-08-18T09:00:36.559Z,57.80
2022-08-18T09:03:30.241Z,58.80
2022-08-18T09:06:10.195Z,57.90
2022-08-18T09:08:56.240Z,57.60
2022-08-18T09:11:23.530Z,56.60
2022-08-18T09:14:27.595Z,56.30
2022-08-18T09:17:11.685Z,55.00
2022-08-18T09:20:11.121Z,52.70
2022-08-18T09:22:48.754Z,52.00
2022-08-18T09:25:42.462Z,54.30
2022-08-18T09:28:12.554Z,52.80
2022-08-18T09:31:11.384Z,54.80
2022-08-18T09:33:44.711Z,55.00
2022-08-18T09:36:27.890Z,56.30
2022-08-18T09:39:33.490Z,56.80
2022-08-18T09:42:14.524Z,57.00
2022-08-18T09:44:49.277Z,56.50
2022-08-18T09:47:23.817Z,56.60
2022-08-18T09:50:26.664Z,55.20
2022-08-18T09:53:37.973Z,56.40
2022-08-18T09:56:07.304Z,55.40
2022-08-18T09:58:58.786Z,56.70
2022-08-18T10:01:37.104Z,56.40
2022-08-18T10:07:38.790Z,53.50
2022-08-18T10:10:59.115Z,54.50
2022-08-18T10:13:14.826Z,54.90
2022-08-18T10:16:10.777Z,52.70
2022-08-18T10:19:05.057Z,53.10
2022-08-18T10:21:56.061Z,53.70
2022-08-18T10:24:34.913Z,53.50
2022-08-18T10:27:13.824Z,54.10
2022-08-18T10:29:51.345Z,54.90
2022-08-18T10:32:24.760Z,52.90
2022-08-18T10:34:53.789Z,53.20
2022-08-18T10:37:39.219Z,52.10
2022-08-18T10:40:13.264Z,52.50
2022-08-18T10:42:53.460Z,52.40
2022-08-18T10:45:37.472Z,51.90
2022-08-18T10:48:29.031Z,49.50
2022-08-18T10:51:12.200Z,49.10
2022-08-18T10:53:53.308Z,49.70
2022-08-18T10:56:32.125Z,47.70
2022-08-18T10:59:16.594Z,48.10
2022-08-18T11:02:12.626Z,48.30
2022-08-18T11:04:43.743Z,46.00
2022-08-18T11:07:23.313Z,46.10
2022-08-18T11:10:04.950Z,47.10
2022-08-18T11:13:00.897Z,45.70
2022-08-18T11:15:52.963Z,45.00
2022-08-18T11:18:42.855Z,45.60
2022-08-18T11:21:42.541Z,44.70
2022-08-18T11:24:24.943Z,43.50
2022-08-18T11:26:57.396Z,44.70
2022-08-18T11:29:28.004Z,43.90
2022-08-18T11:32:22.768Z,44.50
2022-08-18T11:35:05.812Z,44.20
2022-08-18T11:37:51.885Z,43.70
2022-08-18T11:43:25.133Z,40.80
2022-08-18T11:46:04.693Z,39.70
2022-08-18T11:51:32.766Z,39.50
2022-08-18T11:54:13.114Z,41.20
2022-08-18T11:56:40.527Z,39.90
2022-08-18T11:59:54.840Z,41.10
2022-08-18T12:02:27.461Z,38.70
2022-08-18T12:04:58.089Z,39.60
2022-08-18T12:07:32.223Z,40.00
2022-08-18T12:10:17.755Z,40.40
2022-08-18T12:12:51.940Z,38.90
2022-08-18T12:15:24.968Z,39.90
2022-08-18T12:17:53.847Z,38.70
2022-08-18T12:20:21.893Z,38.90
2022-08-18T12:22:50.039Z,40.60
2022-08-18T12:28:10.997Z,41.30
2022-08-18T12:30:42.079Z,41.60
2022-08-18T12:33:12.063Z,41.70
2022-08-18T12:35:45.744Z,41.30
2022-08-18T12:38:14.494Z,40.40
2022-08-18T12:40:42.962Z,40.00
2022-08-18T12:43:10.625Z,40.50
2022-08-18T12:45:39.000Z,40.50
2022-08-18T12:48:06.876Z,39.90
2022-08-18T12:50:50.504Z,40.30
2022-08-18T12:53:29.920Z,39.80
2022-08-18T12:56:07.388Z,39.50
2022-08-18T12:58:38.524Z,39.40
2022-08-18T13:01:07.823Z,39.80
2022-08-18T13:03:35.108Z,39.00
2022-08-18T13:06:02.862Z,40.80
2022-08-18T13:08:33.727Z,38.10
2022-08-18T13:11:21.301Z,39.10
2022-08-18T13:13:53.202Z,37.80
2022-08-18T13:16:38.687Z,36.40
2022-08-18T13:19:13.367Z,37.50
2022-08-18T13:21:42.947Z,36.40
2022-08-18T13:24:12.795Z,37.60
2022-08-18T13:26:43.049Z,37.50
2022-08-18T13:29:17.819Z,36.70
2022-08-18T13:31:55.793Z,36.50
2022-08-18T13:34:27.678Z,36.00
2022-08-18T13:36:57.886Z,35.20
2022-08-18T13:39:34.531Z,34.70
2022-08-18T13:42:26.493Z,34.50
2022-08-18T13:44:55.080Z,35.50
2022-08-18T13:47:28.564Z,36.10
2022-08-18T13:50:00.267Z,36.40
2022-08-18T13:52:41.147Z,37.00
2022-08-18T13:55:16.794Z,37.60
2022-08-18T13:57:49.808Z,36.70
2022-08-18T14:00:27.834Z,35.40
2022-08-18T14:02:59.320Z,36.10
2022-08-18T14:05:50.918Z,35.30
2022-08-18T14:08:19.610Z,36.10
2022-08-18T14:10:54.597Z,35.10
2022-08-18T14:13:25.782Z,35.80
2022-08-18T14:15:57.283Z,36.50
2022-08-18T14:18:28.829Z,36.30
2022-08-18T14:21:17.088Z,37.60
2022-08-18T14:24:14.468Z,37.90
2022-08-18T14:26:51.288Z,36.70
2022-08-18T14:29:45.655Z,36.70
2022-08-18T14:32:07.201Z,36.00
2022-08-18T14:34:34.896Z,35.40
2022-08-18T14:37:03.257Z,33.70
2022-08-18T14:39:31.053Z,35.10
2022-08-18T14:41:58.769Z,35.20
2022-08-18T14:44:32.547Z,33.80
2022-08-18T14:47:00.153Z,34.50
2022-08-18T14:49:29.430Z,34.10
2022-08-18T14:51:58.536Z,35.80
2022-08-18T14:54:28.615Z,36.40
2022-08-18T14:56:57.937Z,36.70
2022-08-18T14:59:25.724Z,36.40
2022-08-18T15:01:53.514Z,36.10
2022-08-18T15:04:21.450Z,36.60
2022-08-18T15:06:56.083Z,36.10
2022-08-18T15:09:26.845Z,36.20
2022-08-18T15:11:56.267Z,35.30
2022-08-18T15:14:32.726Z,35.90
2022-08-18T15:17:11.892Z,35.50
2022-08-18T15:20:00.701Z,35.80
2022-08-18T15:22:47.760Z,35.40
2022-08-18T15:25:33.366Z,34.90
2022-08-18T15:28:00.789Z,35.20
2022-08-18T15:30:28.137Z,35.50
2022-08-18T15:32:55.873Z,35.30
2022-08-18T15:35:23.313Z,35.60
2022-08-18T15:37:51.645Z,35.20
2022-08-18T15:40:31.200Z,35.00
2022-08-18T15:43:10.154Z,35.20
2022-08-18T15:45:43.165Z,35.00
2022-08-18T15:48:19.093Z,34.00
2022-08-18T15:50:51.224Z,32.70
2022-08-18T15:53:23.629Z,33.80
2022-08-18T15:55:50.706Z,34.30
2022-08-18T15:58:22.194Z,34.60
2022-08-18T16:00:50.485Z,35.10
2022-08-18T16:03:18.283Z,35.00
2022-08-18T16:05:53.162Z,35.60
2022-08-18T16:08:24.915Z,35.20
2022-08-18T16:10:52.581Z,35.80
2022-08-18T16:13:20.298Z,36.60
2022-08-18T16:15:50.081Z,37.00
2022-08-18T16:18:18.374Z,36.30
2022-08-18T16:20:45.578Z,36.00
2022-08-18T16:23:13.284Z,36.30
2022-08-18T16:25:43.553Z,36.50
2022-08-18T16:28:12.802Z,36.50
2022-08-18T16:30:40.182Z,36.50
2022-08-18T16:33:07.600Z,36.50
2022-08-18T16:35:35.000Z,36.90
2022-08-18T16:38:04.695Z,37.10
2022-08-18T16:40:32.075Z,37.40
2022-08-18T16:43:00.853Z,37.40
2022-08-18T16:45:28.503Z,37.50
2022-08-18T16:47:56.134Z,36.50
2022-08-18T16:50:25.198Z,35.90
2022-08-18T16:52:52.694Z,36.10
2022-08-18T16:55:20.328Z,34.10
2022-08-18T16:58:06.018Z,32.50
2022-08-18T17:00:54.779Z,29.50
2022-08-18T17:03:42.767Z,29.20
2022-08-18T17:06:14.571Z,27.90
2022-08-18T17:08:42.026Z,27.90
2022-08-18T17:11:12.822Z,28.20
2022-08-18T17:13:40.251Z,27.40
2022-08-18T17:16:08.400Z,29.30
2022-08-18T17:18:36.368Z,30.10
2022-08-18T17:21:05.108Z,31.40
2022-08-18T17:23:32.590Z,32.90
2022-08-18T17:26:00.260Z,33.50
2022-08-18T17:28:50.641Z,34.10
2022-08-18T17:31:22.835Z,34.40
2022-08-18T17:33:50.020Z,34.90
2022-08-18T17:36:37.415Z,35.40
2022-08-18T17:39:08.534Z,35.50
2022-08-18T17:41:59.076Z,35.90
2022-08-18T17:44:31.357Z,36.20
2022-08-18T17:46:58.782Z,36.30
2022-08-18T17:49:54.406Z,36.70
2022-08-18T17:52:47.227Z,36.70
2022-08-18T17:55:50.960Z,36.90
2022-08-18T17:58:29.710Z,37.50
2022-08-18T18:00:57.541Z,38.60
2022-08-18T18:03:25.069Z,40.40
2022-08-18T18:05:56.265Z,40.80
2022-08-18T18:08:56.019Z,41.40
2022-08-18T18:11:32.918Z,43.50
2022-08-18T18:14:01.453Z,43.50
2022-08-18T18:16:35.313Z,43.90
2022-08-18T18:19:06.267Z,44.20
2022-08-18T18:21:55.414Z,44.50
2022-08-18T18:24:29.130Z,44.00
2022-08-18T18:26:56.572Z,45.40
2022-08-18T18:29:37.813Z,44.80
2022-08-18T18:32:08.018Z,45.90
2022-08-18T18:34:45.626Z,46.00
2022-08-18T18:37:33.326Z,45.90
2022-08-18T18:40:02.685Z,46.80
2022-08-18T18:42:31.659Z,46.40
2022-08-18T18:45:09.622Z,46.40
2022-08-18T18:47:43.136Z,47.00
2022-08-18T18:50:12.039Z,46.80
2022-08-18T18:52:50.633Z,47.10
2022-08-18T18:55:26.423Z,47.70
2022-08-18T18:58:14.953Z,47.20
2022-08-18T19:01:03.251Z,48.10
2022-08-18T19:03:50.229Z,48.10
2022-08-18T19:06:40.788Z,48.60
2022-08-18T19:09:16.761Z,48.20
2022-08-18T19:12:13.177Z,48.70
2022-08-18T19:14:59.430Z,49.20
2022-08-18T19:17:45.570Z,49.40
2022-08-18T19:20:18.790Z,49.90
2022-08-18T19:23:33.819Z,49.50
2022-08-18T19:26:17.722Z,50.30
2022-08-18T19:29:11.964Z,50.20
2022-08-18T19:31:54.767Z,50.00
2022-08-18T19:34:34.566Z,50.20
2022-08-18T19:37:26.717Z,50.00
2022-08-18T19:40:20.272Z,49.60
2022-08-18T19:43:05.579Z,49.90
2022-08-18T19:45:46.821Z,50.80
2022-08-18T19:48:35.085Z,50.40
2022-08-18T19:51:29.305Z,50.20
2022-08-18T19:54:27.019Z,50.40
2022-08-18T19:57:36.429Z,50.60
2022-08-18T20:00:18.361Z,50.60
2022-08-18T20:02:52.096Z,50.50
2022-08-18T20:05:32.050Z,50.30
2022-08-18T20:08:27.156Z,50.70
2022-08-18T20:11:21.340Z,50.60
2022-08-18T20:14:11.799Z,50.90
2022-08-18T20:16:44.189Z,50.80
2022-08-18T20:19:54.279Z,50.70
2022-08-18T20:22:24.820Z,51.00
2022-08-18T20:24:57.781Z,51.10
2022-08-18T20:27:45.019Z,51.30
2022-08-18T20:30:23.240Z,52.00
2022-08-18T20:33:07.959Z,52.20
2022-08-18T20:35:54.788Z,52.50
2022-08-18T20:38:35.254Z,52.90
2022-08-18T20:41:29.030Z,53.20
2022-08-18T20:44:21.937Z,53.80
2022-08-18T20:47:21.550Z,53.80
2022-08-18T20:50:04.154Z,53.90
2022-08-18T20:52:58.303Z,54.70
2022-08-18T20:55:34.906Z,55.00
2022-08-18T20:58:12.674Z,55.20
2022-08-18T21:00:41.738Z,55.10
2022-08-18T21:03:12.541Z,55.40
2022-08-18T21:05:41.110Z,56.30
2022-08-18T21:08:13.601Z,55.70
2022-08-18T21:10:54.950Z,56.10
2022-08-18T21:13:38.588Z,57.00
2022-08-18T21:16:06.431Z,56.90
2022-08-18T21:18:35.215Z,56.80
2022-08-18T21:21:05.199Z,56.60
2022-08-18T21:23:34.539Z,57.00
2022-08-18T21:26:06.450Z,58.00
2022-08-18T21:28:35.102Z,57.70
2022-08-18T21:31:42.861Z,57.50
2022-08-18T21:33:57.778Z,58.00
2022-08-18T21:36:31.792Z,58.80
2022-08-18T21:39:18.272Z,58.00
2022-08-18T21:41:52.901Z,59.10
2022-08-18T21:44:41.846Z,59.20
2022-08-18T21:47:29.434Z,59.70
2022-08-18T21:50:10.557Z,59.50
2022-08-18T21:53:08.622Z,59.90
2022-08-18T21:55:41.682Z,60.40
2022-08-18T21:58:17.892Z,60.30
2022-08-18T22:01:06.082Z,61.00
2022-08-18T22:03:33.803Z,61.40
2022-08-18T22:06:03.695Z,61.00
2022-08-18T22:08:33.583Z,60.80
2022-08-18T22:11:51.854Z,61.50
2022-08-18T22:14:35.815Z,61.00
2022-08-18T22:17:26.107Z,62.60
2022-08-18T22:19:53.457Z,62.80
2022-08-18T22:22:40.000Z,62.20
2022-08-18T22:25:07.377Z,62.80
2022-08-18T22:27:34.521Z,63.00
2022-08-18T22:30:05.386Z,64.30
2022-08-18T22:32:33.587Z,63.60
2022-08-18T22:35:00.750Z,64.00
2022-08-18T22:37:30.677Z,63.40
2022-08-18T22:40:00.286Z,64.30
2022-08-18T22:42:33.075Z,66.00
2022-08-18T22:45:04.789Z,65.00
2022-08-18T22:47:34.111Z,65.80
2022-08-18T22:50:10.848Z,66.30
2022-08-18T22:52:42.776Z,66.00
2022-08-18T22:55:12.111Z,65.90
2022-08-18T22:57:40.699Z,66.80
2022-08-18T23:00:15.673Z,66.80
2022-08-18T23:02:42.955Z,67.00
2022-08-18T23:05:10.357Z,66.80
2022-08-18T23:07:37.860Z,68.60
2022-08-18T23:10:08.093Z,69.50
2022-08-18T23:12:45.086Z,67.90
2022-08-18T23:15:12.367Z,69.00
2022-08-18T23:17:40.733Z,69.50
2022-08-18T23:20:11.414Z,69.60
2022-08-18T23:22:39.344Z,69.90
2022-08-18T23:25:08.928Z,70.20
2022-08-18T23:27:36.823Z,69.40
2022-08-18T23:30:05.113Z,69.20
2022-08-18T23:32:33.466Z,69.30
2022-08-18T23:35:01.149Z,69.20
2022-08-18T23:37:28.215Z,69.90
2022-08-18T23:39:55.989Z,69.70
2022-08-18T23:42:25.043Z,69.20
2022-08-18T23:44:52.344Z,69.80
2022-08-18T23:47:19.710Z,69.60
2022-08-18T23:49:47.191Z,69.50
2022-08-18T23:52:14.212Z,69.50
2022-08-18T23:54:41.346Z,69.70
2022-08-18T23:57:08.756Z,69.80
2022-08-18T23:59:35.896Z,70.80
